메인 페이지
METAR-TAF:

METAR-TAF

공항 :

뉴베드포드, 매사추세츠, 미국

위도: 41-40-31N, 경도: 070-57-25W, 고도: 24m

현재 날씨관측

예보는 52분 전, 10:01시(UTC)에 발표되었습니다.
10kt
온도 4°C
습도 100%
기압 1013 hPa
시정: 4.8km
고도 500ft 상공 흐림
박무

METAR: KEWB 301001Z AUTO 36010KT 3SM BR OVC005 04/04 A2992 RMK AO2 T00440044

시각: 06:53 (10:53 UTC)


TAF: 누락

4,000개 이상의 공항 관측 자료 및 예보 (METAR 및 TAF 보고).

지도상에서 검색 가능한 기상관측소가 노란 점과 빨간 점으로 표시되어 있습니다.

기상관측소 명을 보려면 표시 위로 마우스를 이동하세요.

날씨 관측과 예보를 보려면 클릭하세요.

지도 변경 : 확대하려면 엑스 표시가 있는 녹색 버튼, 축소하려면 빼기 표시가 있는 녹색 버튼, 다음 페이지의 지도를 보려면 녹색 화살표를 클릭하세요.


METAR-TAF: